TimeEST,TemperatureF,Dew PointF,Humidity,Sea Level PressureIn,VisibilityMPH,Wind Direction,Wind SpeedMPH,Gust SpeedMPH,PrecipitationIn,Events,Conditions,WindDirDegrees,DateUTC
12:15 AM,50.0,46.4,87,30.02,10.0,SSW,6.9,-,N/A,Rain,Light Rain,210,2012-12-07 05:15:00
12:35 AM,50.0,46.4,87,30.02,10.0,SSW,8.1,-,N/A,,Overcast,210,2012-12-07 05:35:00
12:55 AM,50.0,46.4,87,30.02,10.0,SW,6.9,-,N/A,,Overcast,220,2012-12-07 05:55:00
1:15 AM,51.8,46.4,82,30.02,10.0,SW,5.8,-,N/A,Rain,Light Rain,220,2012-12-07 06:15:00
1:35 AM,50.0,46.4,87,30.02,10.0,WSW,6.9,-,N/A,,Drizzle,250,2012-12-07 06:35:00
1:55 AM,50.0,46.4,87,30.02,10.0,WSW,5.8,-,N/A,Rain,Rain,250,2012-12-07 06:55:00
2:15 AM,50.0,48.2,94,30.03,7.0,SW,9.2,-,N/A,Rain,Rain,230,2012-12-07 07:15:00
2:35 AM,50.0,48.2,94,30.02,10.0,SW,11.5,-,N/A,Rain,Light Rain,230,2012-12-07 07:35:00
2:55 AM,50.0,48.2,94,30.01,7.0,SSW,13.8,18.4,N/A,Rain,Light Rain,210,2012-12-07 07:55:00
3:15 AM,50.0,48.2,94,30.01,10.0,SW,10.4,-,N/A,Rain,Light Rain,220,2012-12-07 08:15:00
3:35 AM,50.0,48.2,94,30.01,10.0,SW,8.1,-,N/A,Rain,Light Rain,230,2012-12-07 08:35:00
3:55 AM,50.0,48.2,94,30.01,10.0,WSW,4.6,-,N/A,Rain,Rain,250,2012-12-07 08:55:00
4:15 AM,50.0,48.2,94,30.00,10.0,SW,6.9,-,N/A,Rain,Light Rain,220,2012-12-07 09:15:00
4:35 AM,50.0,48.2,94,30.00,10.0,SW,6.9,-,N/A,,Overcast,220,2012-12-07 09:35:00
4:55 AM,50.0,48.2,94,30.00,10.0,SW,4.6,-,N/A,,Overcast,230,2012-12-07 09:55:00
5:15 AM,50.0,48.2,94,30.00,10.0,WSW,4.6,-,N/A,,Overcast,250,2012-12-07 10:15:00
5:35 AM,50.0,48.2,94,30.00,10.0,SW,5.8,-,N/A,,Mostly Cloudy,220,2012-12-07 10:35:00
5:55 AM,50.0,48.2,94,30.00,10.0,WSW,4.6,-,N/A,,Overcast,240,2012-12-07 10:55:00
6:15 AM,50.0,46.4,87,30.00,10.0,Calm,Calm,-,N/A,,Overcast,0,2012-12-07 11:15:00
6:35 AM,50.0,46.4,87,30.00,10.0,SW,4.6,-,N/A,,Mostly Cloudy,230,2012-12-07 11:35:00
6:55 AM,50.0,46.4,87,30.00,10.0,SW,3.5,-,N/A,,Overcast,230,2012-12-07 11:55:00
7:15 AM,50.0,46.4,87,30.01,10.0,North,4.6,-,N/A,,Overcast,360,2012-12-07 12:15:00
7:35 AM,50.0,48.2,94,30.02,10.0,Calm,Calm,-,N/A,Rain,Rain,0,2012-12-07 12:35:00
7:55 AM,50.0,48.2,94,30.02,10.0,Calm,Calm,-,N/A,Rain,Light Rain,0,2012-12-07 12:55:00
8:15 AM,50.0,48.2,94,30.01,7.0,Calm,Calm,-,N/A,Rain,Light Rain,0,2012-12-07 13:15:00
8:35 AM,50.0,48.2,94,30.01,5.0,Calm,Calm,-,N/A,Rain,Light Rain,0,2012-12-07 13:35:00
8:55 AM,50.0,50.0,100,30.01,7.0,Calm,Calm,-,N/A,,Overcast,0,2012-12-07 13:55:00
9:15 AM,50.0,48.2,94,30.01,7.0,Calm,Calm,-,N/A,Rain,Rain,0,2012-12-07 14:15:00
9:35 AM,50.0,50.0,100,30.01,5.0,Calm,Calm,-,N/A,Rain,Light Rain,0,2012-12-07 14:35:00
9:55 AM,50.0,50.0,100,30.02,4.0,Calm,Calm,-,N/A,Rain,Light Rain,0,2012-12-07 14:55:00
10:15 AM,50.0,50.0,100,30.02,4.0,Calm,Calm,-,N/A,Rain,Rain,0,2012-12-07 15:15:00
10:35 AM,50.0,50.0,100,30.01,3.0,ESE,3.5,-,N/A,Rain,Rain,120,2012-12-07 15:35:00
10:55 AM,50.0,50.0,100,30.01,4.0,Calm,Calm,-,N/A,Rain,Rain,0,2012-12-07 15:55:00
11:15 AM,50.0,50.0,100,30.00,5.0,Calm,Calm,-,N/A,Rain,Light Rain,0,2012-12-07 16:15:00
11:35 AM,50.0,50.0,100,30.00,5.0,Calm,Calm,-,N/A,,Overcast,0,2012-12-07 16:35:00
11:55 AM,50.0,50.0,100,29.99,7.0,Calm,Calm,-,N/A,,Overcast,0,2012-12-07 16:55:00
12:15 PM,51.8,50.0,94,29.98,7.0,Calm,Calm,-,N/A,,Overcast,0,2012-12-07 17:15:00
12:35 PM,51.8,51.8,100,29.96,7.0,SSE,4.6,-,N/A,,Overcast,160,2012-12-07 17:35:00
12:55 PM,51.8,51.8,100,29.96,10.0,SSW,3.5,-,N/A,,Overcast,210,2012-12-07 17:55:00
1:15 PM,53.6,51.8,94,29.95,7.0,Calm,Calm,-,N/A,Rain,Light Rain,0,2012-12-07 18:15:00
1:35 PM,53.6,51.8,94,29.93,5.0,SSW,3.5,-,N/A,Rain,Light Rain,200,2012-12-07 18:35:00
1:55 PM,53.6,51.8,94,29.92,10.0,SSW,4.6,-,N/A,,Overcast,200,2012-12-07 18:55:00
2:15 PM,55.4,53.6,94,29.91,10.0,SSW,5.8,-,N/A,,Overcast,210,2012-12-07 19:15:00
2:35 PM,55.4,53.6,94,29.91,10.0,SSW,5.8,-,N/A,,Overcast,210,2012-12-07 19:35:00
2:55 PM,55.4,53.6,94,29.91,10.0,SW,6.9,-,N/A,,Overcast,220,2012-12-07 19:55:00
3:15 PM,55.4,53.6,94,29.91,10.0,SSW,6.9,-,N/A,,Overcast,210,2012-12-07 20:15:00
3:35 PM,57.2,53.6,88,29.91,10.0,SW,6.9,-,N/A,,Overcast,220,2012-12-07 20:35:00
3:55 PM,57.2,53.6,88,29.91,10.0,SW,6.9,-,N/A,,Overcast,230,2012-12-07 20:55:00
4:15 PM,57.2,51.8,82,29.91,10.0,SW,8.1,-,N/A,,Overcast,230,2012-12-07 21:15:00
4:35 PM,57.2,51.8,82,29.91,10.0,SW,5.8,-,N/A,,Overcast,230,2012-12-07 21:35:00
4:55 PM,55.4,53.6,94,29.91,10.0,WSW,6.9,-,N/A,,Overcast,240,2012-12-07 21:55:00
5:15 PM,55.4,53.6,94,29.91,10.0,SW,5.8,-,N/A,,Overcast,230,2012-12-07 22:15:00
5:35 PM,55.4,53.6,94,29.91,10.0,WSW,5.8,-,N/A,,Overcast,240,2012-12-07 22:35:00
5:55 PM,55.4,53.6,94,29.90,10.0,SW,5.8,-,N/A,,Overcast,220,2012-12-07 22:55:00
6:15 PM,55.4,53.6,94,29.91,10.0,WSW,4.6,-,N/A,,Overcast,240,2012-12-07 23:15:00
6:35 PM,55.4,53.6,94,29.91,10.0,WSW,6.9,-,N/A,Rain,Light Rain,240,2012-12-07 23:35:00
6:55 PM,55.4,53.6,94,29.91,10.0,SW,4.6,-,N/A,,Overcast,230,2012-12-07 23:55:00
7:15 PM,55.4,53.6,94,29.91,10.0,SW,4.6,-,N/A,,Overcast,230,2012-12-08 00:15:00
7:35 PM,53.6,53.6,100,29.90,10.0,SW,5.8,-,N/A,Rain,Light Rain,220,2012-12-08 00:35:00
8:15 PM,55.4,53.6,94,29.91,10.0,WSW,5.8,-,N/A,Rain,Light Rain,240,2012-12-08 01:15:00
8:35 PM,53.6,53.6,100,29.91,7.0,WSW,5.8,-,N/A,Rain,Rain,240,2012-12-08 01:35:00
8:55 PM,53.6,53.6,100,29.91,10.0,SW,5.8,-,N/A,,Overcast,230,2012-12-08 01:55:00
9:35 PM,55.4,51.8,88,29.91,10.0,WSW,8.1,-,N/A,,Overcast,240,2012-12-08 02:35:00
9:55 PM,55.4,51.8,88,29.91,10.0,WSW,8.1,-,N/A,,Overcast,240,2012-12-08 02:55:00
10:35 PM,53.6,51.8,94,29.91,10.0,WSW,9.2,-,N/A,,Overcast,240,2012-12-08 03:35:00
10:55 PM,53.6,51.8,94,29.91,10.0,WSW,6.9,-,N/A,,Overcast,240,2012-12-08 03:55:00
11:15 PM,53.6,51.8,94,29.91,10.0,WSW,8.1,-,N/A,,Overcast,240,2012-12-08 04:15:00
11:35 PM,53.6,50.0,88,29.91,10.0,WSW,8.1,-,N/A,,Mostly Cloudy,240,2012-12-08 04:35:00
11:55 PM,53.6,51.8,94,29.91,10.0,WSW,8.1,-,N/A,,Overcast,240,2012-12-08 04:55:00